sensor_id;sensor_type;location;lat;lon;timestamp;P1;durP1;ratioP1;P2;durP2;ratioP2
36851;SDS011;22784;52.476;13.424;2022-09-13T00:01:59;4.10;;;3.70;;
36851;SDS011;22784;52.476;13.424;2022-09-13T00:06:09;4.22;;;3.80;;
36851;SDS011;22784;52.476;13.424;2022-09-13T00:10:17;3.80;;;3.50;;
36851;SDS011;22784;52.476;13.424;2022-09-13T00:14:22;6.15;;;4.05;;
36851;SDS011;22784;52.476;13.424;2022-09-13T00:18:27;4.40;;;3.67;;
36851;SDS011;22784;52.476;13.424;2022-09-13T00:22:33;4.60;;;3.53;;
36851;SDS011;22784;52.476;13.424;2022-09-13T00:26:37;4.22;;;3.88;;
36851;SDS011;22784;52.476;13.424;2022-09-13T00:30:43;4.00;;;3.70;;
36851;SDS011;22784;52.476;13.424;2022-09-13T00:34:48;4.53;;;3.92;;
36851;SDS011;22784;52.476;13.424;2022-09-13T00:38:54;4.15;;;3.78;;
36851;SDS011;22784;52.476;13.424;2022-09-13T00:42:58;4.05;;;3.65;;
36851;SDS011;22784;52.476;13.424;2022-09-13T00:47:05;3.67;;;3.38;;
36851;SDS011;22784;52.476;13.424;2022-09-13T00:51:12;4.00;;;3.63;;
36851;SDS011;22784;52.476;13.424;2022-09-13T00:55:19;4.20;;;3.75;;
36851;SDS011;22784;52.476;13.424;2022-09-13T00:59:25;4.32;;;3.92;;
36851;SDS011;22784;52.476;13.424;2022-09-13T01:03:32;4.20;;;3.80;;
36851;SDS011;22784;52.476;13.424;2022-09-13T01:07:37;4.25;;;3.85;;
36851;SDS011;22784;52.476;13.424;2022-09-13T01:11:44;3.67;;;3.38;;
36851;SDS011;22784;52.476;13.424;2022-09-13T01:15:49;4.07;;;3.50;;
36851;SDS011;22784;52.476;13.424;2022-09-13T01:19:53;4.10;;;3.80;;
36851;SDS011;22784;52.476;13.424;2022-09-13T01:24:05;4.30;;;3.90;;
36851;SDS011;22784;52.476;13.424;2022-09-13T01:37:52;4.55;;;4.15;;
36851;SDS011;22784;52.476;13.424;2022-09-13T01:42:02;5.70;;;4.15;;
36851;SDS011;22784;52.476;13.424;2022-09-13T01:46:17;4.22;;;3.90;;
36851;SDS011;22784;52.476;13.424;2022-09-13T01:50:31;4.50;;;4.10;;
36851;SDS011;22784;52.476;13.424;2022-09-13T01:54:46;4.40;;;4.00;;
36851;SDS011;22784;52.476;13.424;2022-09-13T01:58:57;4.13;;;3.83;;
36851;SDS011;22784;52.476;13.424;2022-09-13T02:03:08;4.32;;;3.92;;
36851;SDS011;22784;52.476;13.424;2022-09-13T02:07:20;5.03;;;4.07;;
36851;SDS011;22784;52.476;13.424;2022-09-13T02:11:27;3.95;;;3.65;;
36851;SDS011;22784;52.476;13.424;2022-09-13T02:15:33;4.28;;;3.97;;
36851;SDS011;22784;52.476;13.424;2022-09-13T02:19:42;4.25;;;3.95;;
36851;SDS011;22784;52.476;13.424;2022-09-13T02:23:56;4.40;;;3.70;;
36851;SDS011;22784;52.476;13.424;2022-09-13T02:28:15;4.07;;;3.67;;
36851;SDS011;22784;52.476;13.424;2022-09-13T02:32:24;4.30;;;3.70;;
36851;SDS011;22784;52.476;13.424;2022-09-13T02:36:34;4.50;;;4.10;;
36851;SDS011;22784;52.476;13.424;2022-09-13T02:40:46;4.65;;;4.18;;
36851;SDS011;22784;52.476;13.424;2022-09-13T02:44:55;5.83;;;4.10;;
36851;SDS011;22784;52.476;13.424;2022-09-13T02:49:02;4.65;;;3.53;;
36851;SDS011;22784;52.476;13.424;2022-09-13T02:53:18;4.40;;;4.00;;
36851;SDS011;22784;52.476;13.424;2022-09-13T02:57:32;6.00;;;4.10;;
36851;SDS011;22784;52.476;13.424;2022-09-13T03:01:44;4.70;;;3.80;;
36851;SDS011;22784;52.476;13.424;2022-09-13T03:05:51;5.68;;;4.47;;
36851;SDS011;22784;52.476;13.424;2022-09-13T03:09:56;4.10;;;3.80;;
36851;SDS011;22784;52.476;13.424;2022-09-13T03:14:11;5.90;;;5.30;;
36851;SDS011;22784;52.476;13.424;2022-09-13T03:18:27;4.22;;;3.72;;
36851;SDS011;22784;52.476;13.424;2022-09-13T03:22:56;4.32;;;4.00;;
36851;SDS011;22784;52.476;13.424;2022-09-13T03:27:16;4.88;;;4.47;;
36851;SDS011;22784;52.476;13.424;2022-09-13T03:31:28;4.80;;;4.18;;
36851;SDS011;22784;52.476;13.424;2022-09-13T03:35:36;5.00;;;4.60;;
36851;SDS011;22784;52.476;13.424;2022-09-13T03:39:44;5.38;;;4.88;;
36851;SDS011;22784;52.476;13.424;2022-09-13T03:43:54;4.47;;;4.15;;
36851;SDS011;22784;52.476;13.424;2022-09-13T03:48:04;4.82;;;4.25;;
36851;SDS011;22784;52.476;13.424;2022-09-13T03:52:09;5.75;;;4.50;;
36851;SDS011;22784;52.476;13.424;2022-09-13T03:56:14;6.30;;;4.78;;
36851;SDS011;22784;52.476;13.424;2022-09-13T04:00:19;4.63;;;4.32;;
36851;SDS011;22784;52.476;13.424;2022-09-13T04:04:25;5.45;;;4.60;;
36851;SDS011;22784;52.476;13.424;2022-09-13T04:08:29;5.55;;;4.88;;
36851;SDS011;22784;52.476;13.424;2022-09-13T04:12:32;6.53;;;4.82;;
36851;SDS011;22784;52.476;13.424;2022-09-13T04:16:36;5.63;;;5.10;;
36851;SDS011;22784;52.476;13.424;2022-09-13T04:20:42;5.35;;;4.80;;
36851;SDS011;22784;52.476;13.424;2022-09-13T04:24:45;5.93;;;5.25;;
36851;SDS011;22784;52.476;13.424;2022-09-13T04:28:51;5.80;;;5.00;;
36851;SDS011;22784;52.476;13.424;2022-09-13T04:32:55;5.32;;;4.88;;
36851;SDS011;22784;52.476;13.424;2022-09-13T04:37:01;6.30;;;5.45;;
36851;SDS011;22784;52.476;13.424;2022-09-13T04:41:05;5.85;;;5.32;;
36851;SDS011;22784;52.476;13.424;2022-09-13T04:45:10;7.90;;;6.18;;
36851;SDS011;22784;52.476;13.424;2022-09-13T04:49:13;6.53;;;5.80;;
36851;SDS011;22784;52.476;13.424;2022-09-13T04:53:21;6.13;;;5.63;;
36851;SDS011;22784;52.476;13.424;2022-09-13T04:57:25;6.00;;;5.40;;
36851;SDS011;22784;52.476;13.424;2022-09-13T05:01:29;6.72;;;6.13;;
36851;SDS011;22784;52.476;13.424;2022-09-13T05:05:32;6.05;;;5.28;;
36851;SDS011;22784;52.476;13.424;2022-09-13T05:09:38;6.55;;;5.88;;
36851;SDS011;22784;52.476;13.424;2022-09-13T05:13:47;7.25;;;6.15;;
36851;SDS011;22784;52.476;13.424;2022-09-13T05:17:54;6.72;;;6.10;;
36851;SDS011;22784;52.476;13.424;2022-09-13T05:21:58;8.02;;;5.60;;
36851;SDS011;22784;52.476;13.424;2022-09-13T05:26:04;6.53;;;6.00;;
36851;SDS011;22784;52.476;13.424;2022-09-13T05:30:09;8.68;;;6.10;;
36851;SDS011;22784;52.476;13.424;2022-09-13T05:34:14;7.20;;;6.53;;
36851;SDS011;22784;52.476;13.424;2022-09-13T05:38:19;7.40;;;6.30;;
36851;SDS011;22784;52.476;13.424;2022-09-13T05:42:26;6.78;;;5.63;;
36851;SDS011;22784;52.476;13.424;2022-09-13T05:46:29;6.88;;;6.20;;
36851;SDS011;22784;52.476;13.424;2022-09-13T05:50:35;7.72;;;7.00;;
36851;SDS011;22784;52.476;13.424;2022-09-13T05:54:39;7.22;;;6.53;;
36851;SDS011;22784;52.476;13.424;2022-09-13T05:58:47;8.55;;;7.13;;
36851;SDS011;22784;52.476;13.424;2022-09-13T06:02:51;36.58;;;11.02;;
36851;SDS011;22784;52.476;13.424;2022-09-13T06:06:55;12.85;;;11.10;;
36851;SDS011;22784;52.476;13.424;2022-09-13T06:10:59;15.80;;;13.35;;
36851;SDS011;22784;52.476;13.424;2022-09-13T06:15:07;13.68;;;12.02;;
36851;SDS011;22784;52.476;13.424;2022-09-13T06:19:11;16.80;;;12.35;;
36851;SDS011;22784;52.476;13.424;2022-09-13T06:23:15;13.80;;;12.07;;
36851;SDS011;22784;52.476;13.424;2022-09-13T06:27:19;14.30;;;10.73;;
36851;SDS011;22784;52.476;13.424;2022-09-13T06:31:26;11.35;;;10.23;;
36851;SDS011;22784;52.476;13.424;2022-09-13T06:35:30;15.52;;;13.73;;
36851;SDS011;22784;52.476;13.424;2022-09-13T06:39:34;14.00;;;12.10;;
36851;SDS011;22784;52.476;13.424;2022-09-13T06:43:38;13.80;;;11.05;;
36851;SDS011;22784;52.476;13.424;2022-09-13T06:47:44;16.13;;;13.25;;
36851;SDS011;22784;52.476;13.424;2022-09-13T06:51:48;14.95;;;11.32;;
36851;SDS011;22784;52.476;13.424;2022-09-13T06:55:58;14.82;;;13.27;;
36851;SDS011;22784;52.476;13.424;2022-09-13T07:00:02;12.02;;;10.45;;
36851;SDS011;22784;52.476;13.424;2022-09-13T07:04:09;11.98;;;10.02;;
36851;SDS011;22784;52.476;13.424;2022-09-13T07:08:14;13.73;;;10.30;;
36851;SDS011;22784;52.476;13.424;2022-09-13T07:12:20;13.05;;;11.75;;
36851;SDS011;22784;52.476;13.424;2022-09-13T07:16:25;15.48;;;12.40;;
36851;SDS011;22784;52.476;13.424;2022-09-13T07:20:33;10.40;;;9.38;;
36851;SDS011;22784;52.476;13.424;2022-09-13T07:24:36;12.23;;;10.27;;
36851;SDS011;22784;52.476;13.424;2022-09-13T07:28:40;11.55;;;10.45;;
36851;SDS011;22784;52.476;13.424;2022-09-13T07:32:45;10.85;;;9.75;;
36851;SDS011;22784;52.476;13.424;2022-09-13T07:36:54;12.68;;;10.90;;
36851;SDS011;22784;52.476;13.424;2022-09-13T07:40:58;17.30;;;11.55;;
36851;SDS011;22784;52.476;13.424;2022-09-13T07:45:05;10.85;;;9.77;;
36851;SDS011;22784;52.476;13.424;2022-09-13T07:49:12;12.77;;;9.48;;
36851;SDS011;22784;52.476;13.424;2022-09-13T07:53:20;13.27;;;10.52;;
36851;SDS011;22784;52.476;13.424;2022-09-13T07:57:24;11.85;;;10.43;;
36851;SDS011;22784;52.476;13.424;2022-09-13T08:01:28;12.93;;;10.95;;
36851;SDS011;22784;52.476;13.424;2022-09-13T08:05:37;12.90;;;11.60;;
36851;SDS011;22784;52.476;13.424;2022-09-13T08:09:43;13.05;;;11.70;;
36851;SDS011;22784;52.476;13.424;2022-09-13T08:13:48;14.38;;;9.50;;
36851;SDS011;22784;52.476;13.424;2022-09-13T08:17:52;10.65;;;9.63;;
36851;SDS011;22784;52.476;13.424;2022-09-13T08:21:56;11.52;;;10.30;;
36851;SDS011;22784;52.476;13.424;2022-09-13T08:26:02;12.60;;;10.40;;
36851;SDS011;22784;52.476;13.424;2022-09-13T08:30:08;12.60;;;10.65;;
36851;SDS011;22784;52.476;13.424;2022-09-13T08:34:12;11.73;;;10.18;;
36851;SDS011;22784;52.476;13.424;2022-09-13T08:38:17;10.68;;;9.57;;
36851;SDS011;22784;52.476;13.424;2022-09-13T08:42:25;14.60;;;10.60;;
36851;SDS011;22784;52.476;13.424;2022-09-13T08:46:41;14.05;;;10.25;;
36851;SDS011;22784;52.476;13.424;2022-09-13T08:50:47;12.85;;;11.55;;
36851;SDS011;22784;52.476;13.424;2022-09-13T08:54:55;10.52;;;9.43;;
36851;SDS011;22784;52.476;13.424;2022-09-13T09:03:27;10.20;;;8.98;;
36851;SDS011;22784;52.476;13.424;2022-09-13T09:07:38;11.20;;;9.52;;
36851;SDS011;22784;52.476;13.424;2022-09-13T09:11:45;11.98;;;8.98;;
36851;SDS011;22784;52.476;13.424;2022-09-13T09:15:56;10.63;;;9.45;;
36851;SDS011;22784;52.476;13.424;2022-09-13T09:20:06;10.20;;;9.00;;
36851;SDS011;22784;52.476;13.424;2022-09-13T09:24:20;9.95;;;8.85;;
36851;SDS011;22784;52.476;13.424;2022-09-13T09:28:25;10.00;;;8.75;;
36851;SDS011;22784;52.476;13.424;2022-09-13T09:32:40;9.10;;;8.18;;
36851;SDS011;22784;52.476;13.424;2022-09-13T09:37:16;11.75;;;8.52;;
36851;SDS011;22784;52.476;13.424;2022-09-13T09:41:25;9.75;;;8.02;;
36851;SDS011;22784;52.476;13.424;2022-09-13T09:45:34;10.20;;;9.18;;
36851;SDS011;22784;52.476;13.424;2022-09-13T09:49:45;9.38;;;8.15;;
36851;SDS011;22784;52.476;13.424;2022-09-13T09:54:03;8.13;;;7.32;;
36851;SDS011;22784;52.476;13.424;2022-09-13T09:58:08;8.32;;;7.53;;
36851;SDS011;22784;52.476;13.424;2022-09-13T10:02:19;7.88;;;7.13;;
36851;SDS011;22784;52.476;13.424;2022-09-13T10:06:26;7.25;;;6.55;;
36851;SDS011;22784;52.476;13.424;2022-09-13T10:10:34;7.32;;;6.63;;
36851;SDS011;22784;52.476;13.424;2022-09-13T10:14:42;7.43;;;6.70;;
36851;SDS011;22784;52.476;13.424;2022-09-13T10:18:50;7.68;;;6.93;;
36851;SDS011;22784;52.476;13.424;2022-09-13T10:27:24;9.23;;;7.25;;
36851;SDS011;22784;52.476;13.424;2022-09-13T10:31:33;10.15;;;8.07;;
36851;SDS011;22784;52.476;13.424;2022-09-13T10:35:39;8.18;;;7.30;;
36851;SDS011;22784;52.476;13.424;2022-09-13T10:39:57;9.48;;;7.68;;
36851;SDS011;22784;52.476;13.424;2022-09-13T10:44:19;7.93;;;7.15;;
36851;SDS011;22784;52.476;13.424;2022-09-13T10:48:29;8.23;;;7.50;;
36851;SDS011;22784;52.476;13.424;2022-09-13T10:52:55;9.10;;;6.85;;
36851;SDS011;22784;52.476;13.424;2022-09-13T10:57:10;9.85;;;7.57;;
36851;SDS011;22784;52.476;13.424;2022-09-13T11:01:41;11.57;;;9.55;;
36851;SDS011;22784;52.476;13.424;2022-09-13T11:05:52;8.87;;;7.50;;
36851;SDS011;22784;52.476;13.424;2022-09-13T11:10:06;9.93;;;8.68;;
36851;SDS011;22784;52.476;13.424;2022-09-13T11:14:24;8.43;;;7.47;;
36851;SDS011;22784;52.476;13.424;2022-09-13T11:18:44;9.68;;;7.63;;
36851;SDS011;22784;52.476;13.424;2022-09-13T11:23:07;9.07;;;8.18;;
36851;SDS011;22784;52.476;13.424;2022-09-13T11:27:27;9.68;;;8.57;;
36851;SDS011;22784;52.476;13.424;2022-09-13T11:31:47;12.38;;;9.60;;
36851;SDS011;22784;52.476;13.424;2022-09-13T11:36:09;12.85;;;10.95;;
36851;SDS011;22784;52.476;13.424;2022-09-13T11:40:39;14.63;;;11.88;;
36851;SDS011;22784;52.476;13.424;2022-09-13T11:45:07;13.27;;;9.88;;
36851;SDS011;22784;52.476;13.424;2022-09-13T11:49:30;13.88;;;10.02;;
36851;SDS011;22784;52.476;13.424;2022-09-13T11:53:47;12.95;;;10.13;;
36851;SDS011;22784;52.476;13.424;2022-09-13T11:58:01;12.93;;;8.63;;
36851;SDS011;22784;52.476;13.424;2022-09-13T12:02:15;11.38;;;9.50;;
36851;SDS011;22784;52.476;13.424;2022-09-13T12:06:30;10.48;;;8.65;;
36851;SDS011;22784;52.476;13.424;2022-09-13T12:10:38;9.90;;;8.77;;
36851;SDS011;22784;52.476;13.424;2022-09-13T12:14:51;9.93;;;8.93;;
36851;SDS011;22784;52.476;13.424;2022-09-13T12:18:59;9.80;;;8.90;;
36851;SDS011;22784;52.476;13.424;2022-09-13T12:23:13;10.35;;;8.82;;
36851;SDS011;22784;52.476;13.424;2022-09-13T12:27:22;9.50;;;8.48;;
36851;SDS011;22784;52.476;13.424;2022-09-13T12:31:31;12.65;;;10.18;;
36851;SDS011;22784;52.476;13.424;2022-09-13T12:35:35;12.55;;;10.38;;
36851;SDS011;22784;52.476;13.424;2022-09-13T12:44:36;15.07;;;12.13;;
36851;SDS011;22784;52.476;13.424;2022-09-13T12:48:51;13.18;;;10.70;;
36851;SDS011;22784;52.476;13.424;2022-09-13T12:53:09;12.00;;;9.30;;
36851;SDS011;22784;52.476;13.424;2022-09-13T12:57:33;13.48;;;11.35;;
36851;SDS011;22784;52.476;13.424;2022-09-13T13:01:43;12.93;;;11.63;;
36851;SDS011;22784;52.476;13.424;2022-09-13T13:05:49;12.93;;;10.55;;
36851;SDS011;22784;52.476;13.424;2022-09-13T13:10:00;14.55;;;12.98;;
36851;SDS011;22784;52.476;13.424;2022-09-13T13:14:10;13.98;;;12.55;;
36851;SDS011;22784;52.476;13.424;2022-09-13T13:18:30;34.90;;;26.52;;
36851;SDS011;22784;52.476;13.424;2022-09-13T13:22:48;15.75;;;11.70;;
36851;SDS011;22784;52.476;13.424;2022-09-13T13:26:54;21.25;;;17.23;;
36851;SDS011;22784;52.476;13.424;2022-09-13T13:31:02;14.85;;;12.10;;
36851;SDS011;22784;52.476;13.424;2022-09-13T13:39:38;13.88;;;11.48;;
36851;SDS011;22784;52.476;13.424;2022-09-13T13:43:43;41.00;;;31.85;;
36851;SDS011;22784;52.476;13.424;2022-09-13T13:48:04;13.43;;;12.00;;
36851;SDS011;22784;52.476;13.424;2022-09-13T13:56:45;15.13;;;11.20;;
36851;SDS011;22784;52.476;13.424;2022-09-13T14:00:53;16.85;;;12.68;;
36851;SDS011;22784;52.476;13.424;2022-09-13T14:05:12;12.85;;;10.25;;
36851;SDS011;22784;52.476;13.424;2022-09-13T14:09:26;9.63;;;8.50;;
36851;SDS011;22784;52.476;13.424;2022-09-13T14:13:38;9.40;;;8.40;;
36851;SDS011;22784;52.476;13.424;2022-09-13T14:17:59;9.68;;;8.63;;
36851;SDS011;22784;52.476;13.424;2022-09-13T14:22:17;8.50;;;7.60;;
36851;SDS011;22784;52.476;13.424;2022-09-13T14:26:22;9.77;;;8.65;;
36851;SDS011;22784;52.476;13.424;2022-09-13T14:30:26;8.95;;;8.05;;
36851;SDS011;22784;52.476;13.424;2022-09-13T14:34:34;8.95;;;8.05;;
36851;SDS011;22784;52.476;13.424;2022-09-13T14:38:45;7.78;;;6.97;;
36851;SDS011;22784;52.476;13.424;2022-09-13T14:42:50;8.77;;;7.32;;
36851;SDS011;22784;52.476;13.424;2022-09-13T14:46:57;12.38;;;9.65;;
36851;SDS011;22784;52.476;13.424;2022-09-13T14:51:07;8.88;;;7.97;;
36851;SDS011;22784;52.476;13.424;2022-09-13T14:55:23;9.68;;;8.68;;
36851;SDS011;22784;52.476;13.424;2022-09-13T14:59:30;10.25;;;8.85;;
36851;SDS011;22784;52.476;13.424;2022-09-13T15:03:39;10.55;;;9.45;;
36851;SDS011;22784;52.476;13.424;2022-09-13T15:07:44;11.32;;;9.70;;
36851;SDS011;22784;52.476;13.424;2022-09-13T15:11:57;11.18;;;9.93;;
36851;SDS011;22784;52.476;13.424;2022-09-13T15:20:28;9.88;;;8.88;;
36851;SDS011;22784;52.476;13.424;2022-09-13T15:24:49;10.77;;;9.68;;
36851;SDS011;22784;52.476;13.424;2022-09-13T15:28:57;9.40;;;8.27;;
36851;SDS011;22784;52.476;13.424;2022-09-13T15:33:14;9.73;;;8.13;;
36851;SDS011;22784;52.476;13.424;2022-09-13T15:37:27;15.93;;;13.57;;
36851;SDS011;22784;52.476;13.424;2022-09-13T15:41:38;9.25;;;7.28;;
36851;SDS011;22784;52.476;13.424;2022-09-13T15:45:45;8.82;;;7.30;;
36851;SDS011;22784;52.476;13.424;2022-09-13T15:49:49;9.77;;;8.80;;
36851;SDS011;22784;52.476;13.424;2022-09-13T15:53:54;7.68;;;6.88;;
36851;SDS011;22784;52.476;13.424;2022-09-13T15:57:57;9.40;;;7.15;;
36851;SDS011;22784;52.476;13.424;2022-09-13T16:02:11;7.70;;;6.90;;
36851;SDS011;22784;52.476;13.424;2022-09-13T16:06:20;6.60;;;6.00;;
36851;SDS011;22784;52.476;13.424;2022-09-13T16:10:24;6.90;;;6.30;;
36851;SDS011;22784;52.476;13.424;2022-09-13T16:14:27;5.82;;;5.25;;
36851;SDS011;22784;52.476;13.424;2022-09-13T16:18:33;6.10;;;5.50;;
36851;SDS011;22784;52.476;13.424;2022-09-13T16:22:37;6.10;;;5.50;;
36851;SDS011;22784;52.476;13.424;2022-09-13T16:26:42;10.35;;;6.88;;
36851;SDS011;22784;52.476;13.424;2022-09-13T16:30:46;8.13;;;6.68;;
36851;SDS011;22784;52.476;13.424;2022-09-13T16:34:55;8.32;;;6.00;;
36851;SDS011;22784;52.476;13.424;2022-09-13T16:39:01;8.77;;;7.80;;
36851;SDS011;22784;52.476;13.424;2022-09-13T16:43:08;6.32;;;5.10;;
36851;SDS011;22784;52.476;13.424;2022-09-13T16:47:16;7.35;;;6.38;;
36851;SDS011;22784;52.476;13.424;2022-09-13T16:51:24;6.28;;;5.68;;
36851;SDS011;22784;52.476;13.424;2022-09-13T16:55:29;11.63;;;9.90;;
36851;SDS011;22784;52.476;13.424;2022-09-13T16:59:35;29.30;;;22.05;;
36851;SDS011;22784;52.476;13.424;2022-09-13T17:03:43;8.07;;;6.25;;
36851;SDS011;22784;52.476;13.424;2022-09-13T17:07:54;9.95;;;8.50;;
36851;SDS011;22784;52.476;13.424;2022-09-13T17:12:00;9.10;;;7.80;;
36851;SDS011;22784;52.476;13.424;2022-09-13T17:16:04;8.23;;;6.07;;
36851;SDS011;22784;52.476;13.424;2022-09-13T17:20:23;9.27;;;6.20;;
36851;SDS011;22784;52.476;13.424;2022-09-13T17:24:29;7.50;;;6.35;;
36851;SDS011;22784;52.476;13.424;2022-09-13T17:28:33;5.55;;;5.05;;
36851;SDS011;22784;52.476;13.424;2022-09-13T17:32:38;7.25;;;6.05;;
36851;SDS011;22784;52.476;13.424;2022-09-13T17:36:44;7.03;;;6.22;;
36851;SDS011;22784;52.476;13.424;2022-09-13T17:40:59;7.70;;;5.90;;
36851;SDS011;22784;52.476;13.424;2022-09-13T17:45:04;10.13;;;9.07;;
36851;SDS011;22784;52.476;13.424;2022-09-13T17:49:08;14.02;;;10.43;;
36851;SDS011;22784;52.476;13.424;2022-09-13T17:53:12;9.32;;;8.23;;
36851;SDS011;22784;52.476;13.424;2022-09-13T17:57:18;5.97;;;5.30;;
36851;SDS011;22784;52.476;13.424;2022-09-13T18:01:25;7.13;;;6.43;;
36851;SDS011;22784;52.476;13.424;2022-09-13T18:05:28;6.47;;;5.88;;
36851;SDS011;22784;52.476;13.424;2022-09-13T18:09:32;6.03;;;4.95;;
36851;SDS011;22784;52.476;13.424;2022-09-13T18:13:38;11.35;;;4.97;;
36851;SDS011;22784;52.476;13.424;2022-09-13T18:17:42;4.40;;;4.00;;
36851;SDS011;22784;52.476;13.424;2022-09-13T18:21:46;4.70;;;4.30;;
36851;SDS011;22784;52.476;13.424;2022-09-13T18:25:56;4.47;;;4.07;;
36851;SDS011;22784;52.476;13.424;2022-09-13T18:30:03;4.25;;;3.85;;
36851;SDS011;22784;52.476;13.424;2022-09-13T18:34:10;7.32;;;4.70;;
36851;SDS011;22784;52.476;13.424;2022-09-13T18:38:14;4.65;;;4.18;;
36851;SDS011;22784;52.476;13.424;2022-09-13T18:42:18;4.88;;;4.40;;
36851;SDS011;22784;52.476;13.424;2022-09-13T18:46:25;4.97;;;4.22;;
36851;SDS011;22784;52.476;13.424;2022-09-13T18:50:30;5.00;;;4.57;;
36851;SDS011;22784;52.476;13.424;2022-09-13T18:54:34;4.70;;;4.20;;
36851;SDS011;22784;52.476;13.424;2022-09-13T18:58:38;7.88;;;5.38;;
36851;SDS011;22784;52.476;13.424;2022-09-13T19:02:46;5.32;;;4.22;;
36851;SDS011;22784;52.476;13.424;2022-09-13T19:06:51;6.63;;;4.30;;
36851;SDS011;22784;52.476;13.424;2022-09-13T19:10:57;5.18;;;4.65;;
36851;SDS011;22784;52.476;13.424;2022-09-13T19:15:01;5.70;;;4.32;;
36851;SDS011;22784;52.476;13.424;2022-09-13T19:19:07;4.30;;;3.90;;
36851;SDS011;22784;52.476;13.424;2022-09-13T19:23:11;4.63;;;4.05;;
36851;SDS011;22784;52.476;13.424;2022-09-13T19:27:15;6.07;;;5.03;;
36851;SDS011;22784;52.476;13.424;2022-09-13T19:31:19;4.82;;;4.43;;
36851;SDS011;22784;52.476;13.424;2022-09-13T19:35:27;5.25;;;4.35;;
36851;SDS011;22784;52.476;13.424;2022-09-13T19:39:32;5.30;;;4.80;;
36851;SDS011;22784;52.476;13.424;2022-09-13T19:43:40;5.13;;;4.72;;
36851;SDS011;22784;52.476;13.424;2022-09-13T19:47:45;6.10;;;5.13;;
36851;SDS011;22784;52.476;13.424;2022-09-13T19:51:53;5.82;;;5.25;;
36851;SDS011;22784;52.476;13.424;2022-09-13T19:55:56;6.95;;;5.80;;
36851;SDS011;22784;52.476;13.424;2022-09-13T20:00:01;6.28;;;5.68;;
36851;SDS011;22784;52.476;13.424;2022-09-13T20:04:08;9.40;;;7.35;;
36851;SDS011;22784;52.476;13.424;2022-09-13T20:08:16;6.20;;;5.30;;
36851;SDS011;22784;52.476;13.424;2022-09-13T20:12:28;9.63;;;6.43;;
36851;SDS011;22784;52.476;13.424;2022-09-13T20:16:35;6.82;;;5.63;;
36851;SDS011;22784;52.476;13.424;2022-09-13T20:20:45;6.30;;;5.63;;
36851;SDS011;22784;52.476;13.424;2022-09-13T20:24:52;6.65;;;5.43;;
36851;SDS011;22784;52.476;13.424;2022-09-13T20:28:58;8.30;;;7.43;;
36851;SDS011;22784;52.476;13.424;2022-09-13T20:33:07;9.05;;;6.00;;
36851;SDS011;22784;52.476;13.424;2022-09-13T20:37:11;6.80;;;6.05;;
36851;SDS011;22784;52.476;13.424;2022-09-13T20:41:17;7.63;;;4.90;;
36851;SDS011;22784;52.476;13.424;2022-09-13T20:45:24;6.82;;;4.65;;
36851;SDS011;22784;52.476;13.424;2022-09-13T20:49:31;6.00;;;3.67;;
36851;SDS011;22784;52.476;13.424;2022-09-13T20:53:37;3.65;;;3.15;;
36851;SDS011;22784;52.476;13.424;2022-09-13T20:57:56;5.93;;;4.30;;
36851;SDS011;22784;52.476;13.424;2022-09-13T21:02:05;6.47;;;2.90;;
36851;SDS011;22784;52.476;13.424;2022-09-13T21:06:11;4.78;;;3.22;;
36851;SDS011;22784;52.476;13.424;2022-09-13T21:10:14;5.93;;;3.10;;
36851;SDS011;22784;52.476;13.424;2022-09-13T21:14:27;4.60;;;3.58;;
36851;SDS011;22784;52.476;13.424;2022-09-13T21:18:33;6.78;;;2.70;;
36851;SDS011;22784;52.476;13.424;2022-09-13T21:22:37;4.78;;;2.72;;
36851;SDS011;22784;52.476;13.424;2022-09-13T21:26:43;6.88;;;3.75;;
36851;SDS011;22784;52.476;13.424;2022-09-13T21:30:59;6.88;;;4.32;;
36851;SDS011;22784;52.476;13.424;2022-09-13T21:35:04;10.35;;;3.25;;
36851;SDS011;22784;52.476;13.424;2022-09-13T21:39:08;5.15;;;3.75;;
36851;SDS011;22784;52.476;13.424;2022-09-13T21:43:12;4.55;;;2.40;;
36851;SDS011;22784;52.476;13.424;2022-09-13T21:47:18;5.45;;;2.60;;
36851;SDS011;22784;52.476;13.424;2022-09-13T21:51:23;5.00;;;2.45;;
36851;SDS011;22784;52.476;13.424;2022-09-13T21:55:27;4.20;;;2.25;;
36851;SDS011;22784;52.476;13.424;2022-09-13T21:59:31;6.22;;;3.80;;
36851;SDS011;22784;52.476;13.424;2022-09-13T22:03:37;12.10;;;3.40;;
36851;SDS011;22784;52.476;13.424;2022-09-13T22:07:42;7.15;;;3.22;;
36851;SDS011;22784;52.476;13.424;2022-09-13T22:11:46;12.80;;;2.88;;
36851;SDS011;22784;52.476;13.424;2022-09-13T22:15:51;5.78;;;2.70;;
36851;SDS011;22784;52.476;13.424;2022-09-13T22:19:57;5.70;;;2.10;;
36851;SDS011;22784;52.476;13.424;2022-09-13T22:24:01;3.83;;;1.90;;
36851;SDS011;22784;52.476;13.424;2022-09-13T22:28:06;7.43;;;2.10;;
36851;SDS011;22784;52.476;13.424;2022-09-13T22:32:09;5.13;;;2.58;;
36851;SDS011;22784;52.476;13.424;2022-09-13T22:36:16;5.93;;;2.15;;
36851;SDS011;22784;52.476;13.424;2022-09-13T22:40:23;5.35;;;2.30;;
36851;SDS011;22784;52.476;13.424;2022-09-13T22:44:26;5.35;;;1.70;;
36851;SDS011;22784;52.476;13.424;2022-09-13T22:48:30;6.57;;;2.30;;
36851;SDS011;22784;52.476;13.424;2022-09-13T22:52:37;4.75;;;1.80;;
36851;SDS011;22784;52.476;13.424;2022-09-13T22:56:40;3.42;;;1.58;;
36851;SDS011;22784;52.476;13.424;2022-09-13T23:00:44;4.75;;;1.38;;
36851;SDS011;22784;52.476;13.424;2022-09-13T23:04:50;4.60;;;1.60;;
36851;SDS011;22784;52.476;13.424;2022-09-13T23:08:57;3.28;;;1.70;;
36851;SDS011;22784;52.476;13.424;2022-09-13T23:13:02;7.05;;;1.90;;
36851;SDS011;22784;52.476;13.424;2022-09-13T23:17:06;6.10;;;2.00;;
36851;SDS011;22784;52.476;13.424;2022-09-13T23:21:09;6.78;;;2.25;;
36851;SDS011;22784;52.476;13.424;2022-09-13T23:25:16;6.88;;;2.33;;
36851;SDS011;22784;52.476;13.424;2022-09-13T23:29:19;7.68;;;2.22;;
36851;SDS011;22784;52.476;13.424;2022-09-13T23:33:23;7.20;;;2.40;;
36851;SDS011;22784;52.476;13.424;2022-09-13T23:37:26;6.07;;;2.42;;
36851;SDS011;22784;52.476;13.424;2022-09-13T23:41:33;9.35;;;2.30;;
36851;SDS011;22784;52.476;13.424;2022-09-13T23:45:38;10.85;;;2.45;;
36851;SDS011;22784;52.476;13.424;2022-09-13T23:49:41;5.88;;;2.25;;
36851;SDS011;22784;52.476;13.424;2022-09-13T23:53:45;3.45;;;2.42;;
36851;SDS011;22784;52.476;13.424;2022-09-13T23:57:51;5.35;;;2.25;;
